Time;durP1;ratioP1;P1;durP2;ratioP2;P2;SDS_P1;SDS_P2;PMS_P1;PMS_P2;Temp;Humidity;BMP_temperature;BMP_pressure;BME280_temperature;BME280_humidity;BME280_pressure;Samples;Min_cycle;Max_cycle;Signal;HPM_P1;HPM_P2
2022/07/08 00:01:57;;;;;;;3.63;0.30;;;;;;;25.67;40.74;100970.41;4879924;29;20052;-62
2022/07/08 00:04:42;;;;;;;0.77;0.50;;;;;;;25.65;38.01;100970.03;4879788;29;20048;-60
2022/07/08 00:07:27;;;;;;;1.23;0.40;;;;;;;25.45;38.03;100969.75;4879560;29;20056;-60
2022/07/08 00:10:12;;;;;;;2.78;0.25;;;;;;;25.39;39.00;100971.44;4880028;29;20060;-59
2022/07/08 00:12:57;;;;;;;7.90;1.75;;;;;;;25.38;38.10;100967.84;4879575;29;20405;-61
2022/07/08 00:15:42;;;;;;;2.20;0.40;;;;;;;25.11;38.40;100970.41;4873832;29;20052;-60
2022/07/08 00:18:27;;;;;;;1.02;0.30;;;;;;;24.87;39.17;100963.03;4879776;29;20052;-62
2022/07/08 00:21:12;;;;;;;2.33;0.30;;;;;;;24.70;38.98;100964.69;4879853;29;20055;-60
2022/07/08 00:23:57;;;;;;;0.20;0.20;;;;;;;24.50;39.29;100966.38;4880266;29;20115;-61
2022/07/08 00:26:43;;;;;;;0.80;0.15;;;;;;;24.23;39.88;100959.69;4879467;29;20044;-60
2022/07/08 00:29:28;;;;;;;1.48;0.20;;;;;;;23.74;41.25;100969.72;4879045;29;20052;-61
2022/07/08 00:32:13;;;;;;;0.55;0.20;;;;;;;23.14;43.24;100968.88;4879777;29;20548;-61
2022/07/08 00:34:58;;;;;;;0.30;0.22;;;;;;;22.92;44.55;100963.28;4879744;29;20068;-61
2022/07/08 00:37:43;;;;;;;1.98;0.20;;;;;;;22.78;45.07;100966.03;4878930;29;20044;-60
2022/07/08 00:40:28;;;;;;;2.20;0.25;;;;;;;23.04;43.88;100959.34;4898322;29;20063;-60
2022/07/08 00:43:40;;;;;;;0.95;0.30;;;;;;;23.33;43.39;100965.72;4898056;29;20039;-60
2022/07/08 00:46:25;;;;;;;1.33;0.28;;;;;;;23.27;43.58;100967.31;4889280;29;20080;-60
2022/07/08 00:49:10;;;;;;;0.57;0.28;;;;;;;23.28;43.87;100977.22;4871220;29;20741;-61
2022/07/08 00:51:57;;;;;;;0.40;0.20;;;;;;;23.31;43.75;100982.00;4878762;29;20052;-60
2022/07/08 00:54:42;;;;;;;3.78;0.30;;;;;;;23.28;43.62;100985.53;4879218;29;20048;-61
2022/07/08 00:57:27;;;;;;;0.20;0.20;;;;;;;23.21;43.63;100982.78;4878890;29;20048;-61
2022/07/08 01:00:12;;;;;;;0.60;0.20;;;;;;;23.22;43.93;100985.13;4879001;29;20056;-61
2022/07/08 01:02:57;;;;;;;0.20;0.20;;;;;;;23.28;43.54;100980.78;4879017;29;20064;-61
2022/07/08 01:05:42;;;;;;;1.92;0.20;;;;;;;23.31;43.80;100984.78;4878439;29;20079;-62
2022/07/08 01:08:27;;;;;;;2.47;0.20;;;;;;;23.27;44.32;100989.50;4878420;29;20053;-61
2022/07/08 01:11:13;;;;;;;2.25;0.30;;;;;;;23.33;44.51;100988.72;4885909;29;20056;-61
2022/07/08 01:13:58;;;;;;;0.40;0.30;;;;;;;23.35;44.99;100988.34;4878625;29;20055;-61
2022/07/08 01:16:43;;;;;;;0.98;0.30;;;;;;;23.40;45.25;100993.50;4894948;29;20530;-61
2022/07/08 01:19:28;;;;;;;0.98;0.40;;;;;;;23.37;46.44;100997.03;4897732;29;20060;-61
2022/07/08 01:22:13;;;;;;;2.67;0.45;;;;;;;23.33;46.18;101001.81;4897108;29;20524;-61
2022/07/08 01:24:58;;;;;;;0.73;0.32;;;;;;;23.32;46.55;101000.22;4886218;29;20055;-61
2022/07/08 01:27:43;;;;;;;0.20;0.20;;;;;;;23.69;46.17;101005.44;4879023;29;20052;-61
2022/07/08 01:30:28;;;;;;;3.90;0.30;;;;;;;23.70;45.24;100990.34;4875692;29;20055;-61
2022/07/08 01:33:13;;;;;;;1.42;0.45;;;;;;;23.37;46.61;100994.28;4877797;29;20048;-62
2022/07/08 01:35:58;;;;;;;0.90;0.52;;;;;;;23.52;47.24;100998.66;4878413;29;20060;-61
2022/07/08 01:38:43;;;;;;;0.47;0.30;;;;;;;23.51;47.18;100999.88;4877687;29;20068;-62
2022/07/08 01:41:28;;;;;;;2.15;0.30;;;;;;;23.80;46.82;100995.91;4878074;29;20052;-62
2022/07/08 01:44:13;;;;;;;3.20;0.68;;;;;;;23.66;46.77;101009.00;4877749;29;20076;-61
2022/07/08 01:46:58;;;;;;;0.63;0.30;;;;;;;23.50;48.04;101009.41;4860013;29;20111;-61
2022/07/08 01:49:43;;;;;;;3.00;0.88;;;;;;;24.10;46.82;101011.34;4859385;29;20382;-61
2022/07/08 01:52:28;;;;;;;3.63;0.60;;;;;;;23.46;47.56;101002.25;4877701;29;20467;-61
2022/07/08 01:55:13;;;;;;;0.55;0.30;;;;;;;23.55;47.99;101003.44;4877800;29;20409;-61
2022/07/08 01:57:58;;;;;;;4.53;0.50;;;;;;;23.86;47.71;101012.97;4885829;29;20417;-61
2022/07/08 02:00:43;;;;;;;1.02;0.40;;;;;;;24.37;46.73;101009.72;4872137;29;20413;-60
2022/07/08 02:03:28;;;;;;;2.92;0.38;;;;;;;24.53;45.80;101015.59;4877924;29;20055;-61
2022/07/08 02:06:13;;;;;;;1.35;0.38;;;;;;;24.38;46.63;101011.28;4877693;29;20071;-60
2022/07/08 02:08:58;;;;;;;0.20;0.20;;;;;;;24.67;45.50;101007.22;4878073;29;20059;-61
2022/07/08 02:14:48;;;;;;;1.05;0.43;;;;;;;23.52;48.27;101009.00;4878177;29;20051;-60
2022/07/08 02:17:39;;;;;;;4.90;0.80;;;;;;;23.37;48.10;101005.38;4871083;29;20056;-61
2022/07/08 02:20:24;;;;;;;0.68;0.20;;;;;;;23.39;49.26;101003.00;4885300;29;20405;-60
2022/07/08 02:23:09;;;;;;;0.25;0.25;;;;;;;23.81;47.71;101007.81;4877321;29;20048;-61
2022/07/08 02:25:54;;;;;;;0.50;0.30;;;;;;;24.14;46.42;101012.91;4877776;29;20071;-60
2022/07/08 02:28:39;;;;;;;2.70;0.30;;;;;;;24.39;46.53;101010.09;4877588;29;20052;-61
2022/07/08 02:31:24;;;;;;;0.70;0.32;;;;;;;24.68;45.46;101021.91;4877241;29;20055;-61
2022/07/08 02:34:09;;;;;;;2.92;0.80;;;;;;;24.15;45.83;101022.84;4882683;29;20053;-60
2022/07/08 02:36:54;;;;;;;3.92;0.52;;;;;;;24.63;45.70;101025.13;4895151;29;20067;-60
2022/07/08 02:39:39;;;;;;;1.17;0.55;;;;;;;24.85;45.30;101025.81;4871161;29;20064;-61
2022/07/08 02:42:24;;;;;;;5.45;0.47;;;;;;;24.50;45.81;101021.19;4877296;29;20519;-60
2022/07/08 02:45:09;;;;;;;2.58;0.60;;;;;;;24.77;45.22;101029.81;4877437;29;20057;-61
2022/07/08 02:47:54;;;;;;;1.77;0.55;;;;;;;24.96;44.96;101038.50;4877115;29;20056;-59
2022/07/08 02:50:39;;;;;;;1.33;0.60;;;;;;;25.13;44.86;101039.63;4877318;29;20048;-61
2022/07/08 02:53:24;;;;;;;1.10;0.40;;;;;;;25.26;44.31;101034.34;4877063;29;20061;-61
2022/07/08 02:56:12;;;;;;;0.98;0.40;;;;;;;25.44;44.26;101041.41;4876056;29;20068;-60
2022/07/08 02:58:57;;;;;;;0.50;0.50;;;;;;;25.53;44.51;101038.94;4876684;29;20738;-61
2022/07/08 03:01:42;;;;;;;1.23;0.68;;;;;;;25.60;44.81;101046.47;4928214;23;20059;-79
2022/07/08 03:04:27;;;;;;;2.70;0.47;;;;;;;25.66;45.02;101049.59;4940546;29;20424;-79
2022/07/08 03:07:12;;;;;;;0.80;0.50;;;;;;;25.69;45.18;101057.16;4938784;29;20051;-79
2022/07/08 03:09:57;;;;;;;2.22;0.60;;;;;;;25.70;45.74;101058.75;4940691;29;20067;-79
2022/07/08 03:12:42;;;;;;;1.35;0.77;;;;;;;25.65;46.03;101059.94;4938466;29;20055;-79
2022/07/08 03:15:27;;;;;;;1.05;0.68;;;;;;;25.64;45.97;101063.16;4937785;29;20055;-79
2022/07/08 03:18:12;;;;;;;1.75;1.35;;;;;;;25.74;46.06;101062.28;4939945;28;20050;-79
2022/07/08 03:20:57;;;;;;;1.80;0.82;;;;;;;25.78;46.19;101060.25;4942952;29;20416;-79
2022/07/08 03:23:42;;;;;;;2.83;0.70;;;;;;;25.81;46.34;101062.22;4932274;29;20043;-78
2022/07/08 03:26:27;;;;;;;1.60;0.88;;;;;;;25.81;46.43;101062.22;4945704;29;20080;-79
2022/07/08 03:29:11;;;;;;;0.80;0.80;;;;;;;25.77;46.31;101069.81;4940212;29;20412;-79
2022/07/08 03:31:57;;;;;;;3.03;0.60;;;;;;;25.65;46.85;101073.13;4951406;29;20070;-80
2022/07/08 03:34:41;;;;;;;1.13;0.75;;;;;;;25.61;46.98;101072.31;4931623;29;20058;-78
2022/07/08 03:37:26;;;;;;;4.22;0.90;;;;;;;25.70;46.88;101073.44;4938900;29;20075;-79
2022/07/08 03:43:15;;;;;;;0.88;0.73;;;;;;;25.74;46.82;101067.88;4947075;28;20051;-78
2022/07/08 03:46:00;;;;;;;5.57;1.10;;;;;;;25.65;46.85;101068.31;4938057;29;20050;-79
2022/07/08 03:48:45;;;;;;;4.13;1.17;;;;;;;25.12;48.50;101071.41;4941205;29;20051;-79
2022/07/08 03:51:30;;;;;;;4.03;1.00;;;;;;;24.90;49.33;101067.16;4937242;29;20047;-79
2022/07/08 03:54:15;;;;;;;3.80;1.23;;;;;;;24.84;49.52;101068.75;4937748;29;20055;-79
2022/07/08 03:57:00;;;;;;;2.15;1.10;;;;;;;24.64;50.13;101071.97;4936330;29;20055;-78
2022/07/08 03:59:45;;;;;;;3.90;1.10;;;;;;;24.58;50.68;101070.81;4930174;29;20054;-78
2022/07/08 04:02:29;;;;;;;1.77;1.00;;;;;;;25.00;49.38;101067.09;4941190;29;20112;-79
2022/07/08 04:05:14;;;;;;;6.13;1.10;;;;;;;25.29;48.93;101070.53;4950954;29;20046;-79
2022/07/08 04:07:59;;;;;;;1.63;0.90;;;;;;;25.43;48.65;101076.00;4949136;29;20046;-79
2022/07/08 04:10:44;;;;;;;5.75;1.35;;;;;;;25.49;48.22;101081.94;4936167;29;20047;-79
2022/07/08 04:13:29;;;;;;;5.22;1.20;;;;;;;25.58;48.29;101070.38;4940880;29;20039;-78
2022/07/08 04:16:14;;;;;;;5.65;1.30;;;;;;;25.71;48.19;101082.59;4940243;29;20058;-78
2022/07/08 04:19:03;;;;;;;2.25;1.33;;;;;;;25.79;47.71;101084.16;4933561;29;20069;-77
2022/07/08 04:21:49;;;;;;;4.88;1.42;;;;;;;25.82;47.64;101083.31;4945302;28;20046;-78
2022/07/08 04:24:34;;;;;;;4.57;1.40;;;;;;;25.83;47.47;101080.13;4940499;29;20046;-79
2022/07/08 04:27:19;;;;;;;8.57;1.48;;;;;;;25.80;48.04;101080.16;4941270;29;20345;-77
2022/07/08 04:30:04;;;;;;;;;;;;;;;25.85;47.80;101088.09;4939563;29;21690;-77
2022/07/08 04:32:48;;;;;;;3.63;1.60;;;;;;;25.84;47.74;101092.88;4937904;29;19911;-78
2022/07/08 04:35:33;;;;;;;3.80;1.60;;;;;;;25.85;47.97;101093.66;4933946;29;20420;-76
2022/07/08 04:38:17;;;;;;;;;;;;;;;25.86;47.60;101098.00;4937473;29;20066;-78
2022/07/08 04:41:02;;;;;;;2.40;1.40;;;;;;;25.83;47.76;101098.84;4936483;29;19915;-77
2022/07/08 04:43:47;;;;;;;2.15;1.30;;;;;;;25.77;47.71;101092.91;4942552;28;20059;-77
2022/07/08 04:46:32;;;;;;;2.25;1.40;;;;;;;25.74;47.59;101099.31;4930788;29;20044;-77
2022/07/08 04:49:17;;;;;;;5.25;1.65;;;;;;;25.76;47.80;101104.44;4948866;28;20066;-77
2022/07/08 04:52:06;;;;;;;4.60;1.48;;;;;;;25.80;47.63;101102.47;4931928;29;20046;-77
2022/07/08 04:54:50;;;;;;;3.58;1.75;;;;;;;25.81;47.96;101109.59;4937592;28;20062;-76
2022/07/08 04:57:35;;;;;;;4.20;1.83;;;;;;;25.86;47.88;101103.56;4931969;29;20058;-77
2022/07/08 05:00:20;;;;;;;2.95;1.48;;;;;;;25.85;47.75;101105.56;4940015;29;20066;-78
2022/07/08 05:03:04;;;;;;;;;;;;;;;25.89;47.69;101111.13;4940331;29;20424;-78
2022/07/08 05:05:48;;;;;;;3.37;2.07;;;;;;;25.89;48.07;101111.13;4944222;29;19930;-79
2022/07/08 05:08:33;;;;;;;13.13;2.13;;;;;;;25.86;47.52;101112.72;4937426;29;20046;-79
2022/07/08 05:11:18;;;;;;;3.15;1.85;;;;;;;25.85;47.95;101122.28;4938978;29;20055;-79
2022/07/08 05:14:03;;;;;;;6.43;1.63;;;;;;;25.90;48.04;101119.09;4935500;29;20059;-77
2022/07/08 05:16:48;;;;;;;6.88;1.50;;;;;;;25.94;47.69;101119.84;4938954;29;20050;-79
2022/07/08 05:19:32;;;;;;;;;;;;;;;25.97;47.55;101123.81;4930982;29;20042;-78
2022/07/08 05:22:18;;;;;;;3.35;1.90;;;;;;;25.85;48.03;101129.88;4948538;29;20391;-78
2022/07/08 05:25:04;;;;;;;10.18;2.15;;;;;;;25.78;48.45;101122.38;4933825;29;20062;-78
2022/07/08 05:27:48;;;;;;;5.60;1.80;;;;;;;25.91;48.29;101120.66;4943195;28;20047;-78
2022/07/08 05:30:33;;;;;;;5.65;1.42;;;;;;;26.01;47.98;101132.16;4950287;29;20062;-78
2022/07/08 05:33:18;;;;;;;3.83;1.85;;;;;;;26.00;48.00;101128.56;4940807;29;20063;-78
2022/07/08 05:36:03;;;;;;;;;;;;;;;26.03;47.86;101127.75;4946842;29;20101;-78
2022/07/08 05:38:48;;;;;;;7.55;1.90;;;;;;;26.08;47.83;101130.09;4939179;29;19915;-77
2022/07/08 05:41:33;;;;;;;11.77;2.42;;;;;;;26.08;48.07;101130.09;4922561;29;20258;-77
2022/07/08 05:44:18;;;;;;;14.20;3.65;;;;;;;26.08;47.76;101132.88;4936216;29;20062;-77
2022/07/08 05:47:07;;;;;;;19.48;3.67;;;;;;;26.08;47.92;101132.88;4942843;28;20047;-77
2022/07/08 05:49:52;;;;;;;12.00;3.63;;;;;;;26.08;48.07;101130.09;4939440;29;20043;-77
2022/07/08 05:52:37;;;;;;;8.55;2.80;;;;;;;26.10;48.43;101141.63;4932625;29;20043;-77
2022/07/08 05:55:21;;;;;;;14.88;4.32;;;;;;;26.11;48.29;101140.41;4947083;28;20059;-77
2022/07/08 05:58:06;;;;;;;13.75;2.60;;;;;;;26.09;47.92;101142.84;4942440;29;20051;-79
2022/07/08 06:00:51;;;;;;;9.43;2.90;;;;;;;26.23;47.88;101142.72;4936442;29;20044;-79
2022/07/08 06:03:36;;;;;;;3.47;1.98;;;;;;;26.17;47.27;101138.75;4940423;29;20689;-78
2022/07/08 06:06:21;;;;;;;6.43;1.92;;;;;;;26.12;46.27;101139.22;4940792;29;20070;-78
2022/07/08 06:09:06;;;;;;;5.72;2.03;;;;;;;26.07;47.04;101136.06;4946891;29;20050;-78
2022/07/08 06:11:51;;;;;;;5.35;2.15;;;;;;;26.05;46.95;101133.72;4948356;29;20416;-78
2022/07/08 06:14:36;;;;;;;5.47;2.08;;;;;;;26.05;47.63;101139.28;4950755;28;20051;-77
2022/07/08 06:17:21;;;;;;;;;;;;;;;26.19;47.52;101139.16;4937758;29;20128;-78
2022/07/08 06:20:07;;;;;;;351.85;74.85;;;;;;;26.28;48.39;101144.28;4937042;29;19915;-78
2022/07/08 06:22:52;;;;;;;175.02;37.80;;;;;;;26.29;47.78;101138.31;4936432;29;20039;-74
2022/07/08 06:25:37;;;;;;;59.47;12.50;;;;;;;26.36;47.98;101141.00;4933483;29;20039;-74
2022/07/08 06:28:23;;;;;;;23.38;5.20;;;;;;;26.36;47.88;101146.59;4934874;29;20443;-76
2022/07/08 06:31:08;;;;;;;32.88;7.75;;;;;;;26.50;47.28;101153.25;4942269;28;20050;-76
2022/07/08 06:33:56;;;;;;;13.85;4.97;;;;;;;26.54;47.44;101149.22;4949625;28;20425;-77
2022/07/08 06:36:41;;;;;;;13.70;3.92;;;;;;;26.53;47.47;101144.84;4928690;29;20047;-76
2022/07/08 06:39:26;;;;;;;5.65;2.20;;;;;;;26.52;47.40;101148.03;4935116;29;20055;-77
2022/07/08 06:42:10;;;;;;;8.00;2.03;;;;;;;26.49;47.17;101148.88;4934494;29;20070;-76
2022/07/08 06:44:55;;;;;;;7.63;2.33;;;;;;;26.47;47.12;101151.28;4937424;29;20504;-76
2022/07/08 06:47:40;;;;;;;6.07;2.17;;;;;;;26.50;46.84;101156.84;4928327;29;20051;-76
2022/07/08 06:50:25;;;;;;;5.85;2.22;;;;;;;26.50;47.24;101153.25;4937177;29;20421;-76
2022/07/08 06:53:10;;;;;;;7.30;1.60;;;;;;;26.54;46.72;101149.22;4939974;29;20050;-76
2022/07/08 06:55:55;;;;;;;7.78;2.05;;;;;;;26.56;46.66;101165.56;4938119;29;20042;-76
2022/07/08 06:58:40;;;;;;;4.00;1.65;;;;;;;26.51;46.43;101163.22;4915699;29;20067;-76
2022/07/08 07:01:25;;;;;;;1.70;1.35;;;;;;;26.51;45.91;101168.78;4915432;29;20064;-76
2022/07/08 07:04:10;;;;;;;5.45;1.30;;;;;;;26.54;46.05;101167.97;4918109;29;20456;-76
2022/07/08 07:06:55;;;;;;;3.30;1.17;;;;;;;26.54;46.02;101167.97;4932345;29;20055;-76
2022/07/08 07:09:40;;;;;;;8.45;1.63;;;;;;;26.53;46.08;101166.38;4942265;28;20425;-77
2022/07/08 07:12:24;;;;;;;2.72;1.25;;;;;;;26.60;46.27;101164.31;4938449;29;20320;-76
2022/07/08 07:15:09;;;;;;;4.80;1.70;;;;;;;26.68;46.39;101162.22;4936248;29;20051;-76
2022/07/08 07:17:55;;;;;;;3.40;1.50;;;;;;;26.68;46.60;101173.38;4942868;28;20055;-75
2022/07/08 07:20:40;;;;;;;3.30;1.48;;;;;;;26.72;46.01;101163.78;4934531;29;20046;-74
2022/07/08 07:23:24;;;;;;;4.95;1.20;;;;;;;26.76;45.49;101169.34;4930742;29;20050;-76
2022/07/08 07:26:09;;;;;;;0.85;0.60;;;;;;;26.86;41.57;101165.63;4934433;29;20428;-74
2022/07/08 07:28:55;;;;;;;1.58;0.57;;;;;;;26.89;39.93;101167.63;4934327;29;20076;-75
2022/07/08 07:31:40;;;;;;;1.88;0.70;;;;;;;26.86;39.47;101162.84;4933899;29;20070;-76
2022/07/08 07:34:25;;;;;;;3.78;0.63;;;;;;;26.92;38.74;101166.00;4934037;29;20075;-74
2022/07/08 07:37:09;;;;;;;0.63;0.40;;;;;;;26.84;38.53;101170.81;4934197;29;20047;-74
2022/07/08 07:39:54;;;;;;;;;;;;;;;26.83;37.54;101166.44;4934757;29;20059;-76
2022/07/08 07:42:38;;;;;;;2.90;0.53;;;;;;;26.81;37.61;101164.09;4936342;29;20535;-74
2022/07/08 07:45:23;;;;;;;2.15;0.50;;;;;;;26.84;38.09;101165.25;4936678;29;20349;-76
2022/07/08 07:48:10;;;;;;;0.85;0.50;;;;;;;26.79;38.21;101160.13;4937038;29;20100;-75
2022/07/08 07:50:55;;;;;;;1.20;0.57;;;;;;;26.89;37.79;101164.81;4935518;29;20054;-74
2022/07/08 07:53:40;;;;;;;4.00;0.88;;;;;;;26.85;37.89;101161.25;4933621;29;20042;-76
2022/07/08 07:56:25;;;;;;;8.38;1.95;;;;;;;26.88;38.07;101157.66;4943280;28;20067;-75
2022/07/08 07:59:09;;;;;;;18.88;3.17;;;;;;;26.93;38.33;101161.97;4935737;29;20070;-76
2022/07/08 08:01:54;;;;;;;3.40;0.60;;;;;;;26.96;37.37;101172.34;4934233;29;20048;-74
2022/07/08 08:04:38;;;;;;;;;;;;;;;26.97;37.37;101169.09;4937126;29;20046;-75
2022/07/08 08:07:22;;;;;;;4.70;0.50;;;;;;;26.95;37.43;101165.16;4930254;29;20299;-74
2022/07/08 08:10:08;;;;;;;1.27;0.75;;;;;;;26.93;36.44;101171.16;4927387;29;20059;-74
2022/07/08 08:12:57;;;;;;;17.00;2.17;;;;;;;26.99;36.62;101175.06;4945526;28;20429;-76
2022/07/08 08:15:42;;;;;;;1.00;0.50;;;;;;;27.08;35.37;101175.38;4942898;29;20043;-75
2022/07/08 08:18:27;;;;;;;818.50;63.50;;;;;;;27.04;37.74;101169.03;4939485;29;20051;-76
2022/07/08 08:21:11;;;;;;;2.08;0.95;;;;;;;27.15;37.42;101172.50;4936911;29;20044;-76
2022/07/08 08:23:59;;;;;;;6.32;1.00;;;;;;;27.24;37.10;101172.78;4942225;29;20416;-76
2022/07/08 08:26:46;;;;;;;3.95;0.50;;;;;;;27.36;37.48;101174.22;4930932;29;20047;-74
2022/07/08 08:29:30;;;;;;;2.78;0.55;;;;;;;27.43;37.45;101181.75;4930177;29;20074;-75
2022/07/08 08:32:15;;;;;;;1.20;0.60;;;;;;;27.47;37.10;101185.28;4935294;29;20518;-74
2022/07/08 08:35:00;;;;;;;3.90;0.40;;;;;;;27.51;36.21;101186.84;4938159;29;20055;-74
2022/07/08 08:37:45;;;;;;;1.45;0.52;;;;;;;27.56;35.96;101182.78;4936942;29;20534;-75
2022/07/08 08:40:30;;;;;;;2.25;0.50;;;;;;;27.73;35.56;101176.16;4932244;29;20059;-75
2022/07/08 08:43:15;;;;;;;31.27;1.38;;;;;;;29.21;30.69;101177.56;4939829;29;20563;-73
2022/07/08 08:46:01;;;;;;;2.67;0.43;;;;;;;29.27;29.38;101171.03;4935952;29;20050;-73
2022/07/08 08:48:48;;;;;;;5.05;1.40;;;;;;;29.16;30.03;101173.28;4931599;29;20050;-74
2022/07/08 08:51:34;;;;;;;1.17;0.40;;;;;;;29.24;29.63;101177.53;4931231;29;20519;-74
2022/07/08 08:54:22;;;;;;;2.30;0.40;;;;;;;29.01;29.72;101165.59;4944047;28;20062;-74
2022/07/08 08:57:07;;;;;;;0.50;0.50;;;;;;;28.98;29.93;101166.47;4933054;29;20058;-74
2022/07/08 08:59:52;;;;;;;0.45;0.35;;;;;;;28.96;30.18;101157.69;4936876;29;20051;-72
2022/07/08 09:02:38;;;;;;;1.38;0.50;;;;;;;28.82;32.42;101162.34;4940228;29;20136;-74
2022/07/08 09:05:25;;;;;;;2.78;0.40;;;;;;;28.81;31.26;101154.38;4928392;29;20417;-74
2022/07/08 09:08:10;;;;;;;0.50;0.50;;;;;;;28.80;30.59;101156.38;4936297;29;20078;-74
2022/07/08 09:10:55;;;;;;;0.57;0.43;;;;;;;28.85;30.69;101158.69;4934426;29;20043;-74
2022/07/08 09:13:40;;;;;;;0.90;0.30;;;;;;;28.99;30.85;101149.22;4932972;29;20421;-74
2022/07/08 09:16:25;;;;;;;2.65;0.82;;;;;;;28.89;31.42;101141.84;4936250;29;20409;-74
2022/07/08 09:19:14;;;;;;;0.98;0.40;;;;;;;28.95;31.24;101147.72;4931071;29;20055;-73
2022/07/08 09:21:58;;;;;;;0.70;0.30;;;;;;;28.80;30.40;101152.81;4930120;29;20456;-73
2022/07/08 09:24:44;;;;;;;0.73;0.20;;;;;;;28.87;29.71;101153.47;4943296;28;20046;-74
2022/07/08 09:27:29;;;;;;;2.83;0.30;;;;;;;28.86;29.48;101146.28;4940011;29;20058;-74
2022/07/08 09:30:15;;;;;;;0.85;0.50;;;;;;;29.00;28.78;101155.63;4933587;29;20059;-74
2022/07/08 09:33:01;;;;;;;1.40;0.40;;;;;;;29.07;28.58;101150.66;4957109;23;20614;-61
2022/07/08 09:35:50;;;;;;;0.30;0.20;;;;;;;29.15;28.25;101154.91;4910964;29;20055;-61
2022/07/08 09:38:38;;;;;;;0.38;0.30;;;;;;;29.24;28.03;101152.31;4908746;29;20051;-61
2022/07/08 09:41:24;;;;;;;0.20;0.20;;;;;;;29.24;27.42;101143.91;4889819;29;20060;-61
2022/07/08 09:44:14;;;;;;;2.13;0.50;;;;;;;29.27;28.14;101151.44;4896968;29;20052;-61
2022/07/08 09:46:59;;;;;;;0.28;0.20;;;;;;;29.29;27.60;101151.00;4896884;29;20044;-62
2022/07/08 09:49:45;;;;;;;4.05;0.65;;;;;;;29.43;26.84;101153.53;4902607;29;20046;-61
2022/07/08 09:52:31;;;;;;;0.75;0.30;;;;;;;29.58;26.60;101154.78;4908822;29;20056;-61
2022/07/08 09:55:18;;;;;;;1.90;0.68;;;;;;;29.69;26.47;101149.72;4901366;29;20055;-62
2022/07/08 09:58:03;;;;;;;0.77;0.30;;;;;;;29.77;26.55;101148.31;4889947;29;20064;-62
2022/07/08 10:00:53;;;;;;;1.17;0.30;;;;;;;29.84;26.56;101157.81;4905130;29;20043;-60
2022/07/08 10:03:39;;;;;;;1.90;0.20;;;;;;;29.87;26.31;101148.53;4895789;29;20067;-61
2022/07/08 10:06:24;;;;;;;0.40;0.20;;;;;;;29.86;25.80;101146.94;4904203;29;20234;-61
2022/07/08 10:09:09;;;;;;;0.45;0.30;;;;;;;29.87;27.46;101145.72;4896530;29;20051;-62
2022/07/08 10:11:54;;;;;;;1.50;0.32;;;;;;;29.89;27.04;101148.88;4905294;29;20126;-62
2022/07/08 10:14:44;;;;;;;0.93;0.30;;;;;;;29.89;26.59;101144.06;4903808;29;20058;-61
2022/07/08 10:17:35;;;;;;;1.13;0.40;;;;;;;29.90;26.49;101139.25;4894700;29;20048;-61
2022/07/08 10:20:24;;;;;;;2.22;0.30;;;;;;;29.91;25.65;101140.84;4894335;29;20051;-61
2022/07/08 10:23:15;;;;;;;15.60;0.80;;;;;;;29.95;26.93;101142.34;4899779;29;20062;-61
2022/07/08 10:26:02;;;;;;;1.10;0.30;;;;;;;30.04;27.25;101133.28;4901252;29;20404;-61
2022/07/08 10:29:01;;;;;;;0.98;0.20;;;;;;;30.12;26.86;101146.69;4904016;29;20055;-61
2022/07/08 10:31:51;;;;;;;0.47;0.38;;;;;;;30.11;25.73;101138.75;4899397;29;20522;-61
2022/07/08 10:34:36;;;;;;;38.25;2.85;;;;;;;30.08;25.40;101137.59;4889385;29;20052;-61
2022/07/08 10:37:23;;;;;;;5.57;0.60;;;;;;;30.15;25.91;101139.44;4887590;29;20048;-61
2022/07/08 10:40:09;;;;;;;1.08;0.20;;;;;;;30.15;26.20;101139.44;4898676;29;20055;-61
2022/07/08 10:43:05;;;;;;;0.88;0.20;;;;;;;30.12;24.92;101129.09;4902887;29;20048;-61
2022/07/08 10:45:58;;;;;;;2.00;0.65;;;;;;;30.25;24.90;101132.75;4881216;29;20631;-62
2022/07/08 10:48:52;;;;;;;2.72;0.30;;;;;;;30.37;24.31;101132.06;4883357;29;20072;-59
2022/07/08 10:51:37;;;;;;;0.30;0.22;;;;;;;30.40;26.07;101128.34;4888591;29;20043;-60
2022/07/08 10:54:26;;;;;;;1.02;0.30;;;;;;;30.43;24.94;101129.47;4895082;29;20059;-62
2022/07/08 10:57:22;;;;;;;1.17;0.20;;;;;;;30.53;25.60;101143.25;4886939;29;20052;-60
2022/07/08 11:00:14;;;;;;;0.30;0.30;;;;;;;30.59;25.82;101127.44;4894071;29;20046;-62
2022/07/08 11:02:59;;;;;;;0.85;0.30;;;;;;;30.66;25.30;101139.72;4899688;29;20048;-62
2022/07/08 11:05:54;;;;;;;0.50;0.30;;;;;;;30.69;28.34;101131.19;4894265;29;20043;-62
2022/07/08 11:08:38;;;;;;;3.30;0.50;;;;;;;30.55;29.91;101138.00;4894567;29;20531;-61
2022/07/08 11:11:23;;;;;;;0.60;0.22;;;;;;;30.48;27.15;101146.59;4901074;29;20071;-61
2022/07/08 11:14:08;;;;;;;1.38;0.85;;;;;;;30.67;29.34;101142.09;4901418;29;20523;-61
2022/07/08 11:16:55;;;;;;;2.78;0.40;;;;;;;30.66;28.04;101134.91;4895017;29;20043;-61
2022/07/08 11:19:42;;;;;;;0.85;0.45;;;;;;;30.72;30.14;101135.16;4903047;29;20043;-61
2022/07/08 11:22:31;;;;;;;3.10;0.57;;;;;;;30.80;29.12;101133.72;4900879;29;20788;-61
2022/07/08 11:25:17;;;;;;;0.55;0.30;;;;;;;30.80;29.53;101144.94;4906941;29;20392;-61
2022/07/08 11:28:02;;;;;;;0.73;0.68;;;;;;;30.61;29.58;101132.63;4913336;29;20067;-61
2022/07/08 11:30:47;;;;;;;3.53;1.30;;;;;;;30.68;29.42;101140.09;4895194;29;20047;-61
2022/07/08 11:33:42;;;;;;;1.35;0.60;;;;;;;30.69;29.48;101136.00;4879159;29;20416;-61
2022/07/08 11:36:27;;;;;;;1.98;0.63;;;;;;;30.65;30.36;101138.13;4894094;29;20047;-60
2022/07/08 11:39:12;;;;;;;3.63;0.50;;;;;;;30.78;30.65;101133.38;4883224;29;20044;-62
2022/07/08 11:41:57;;;;;;;6.50;0.60;;;;;;;30.83;29.84;101132.84;4883722;29;20052;-61
2022/07/08 11:44:43;;;;;;;1.20;0.40;;;;;;;30.96;29.58;101139.25;4899092;29;20059;-61
2022/07/08 11:47:28;;;;;;;1.80;0.55;;;;;;;30.96;29.89;101140.06;4896370;29;20048;-61
2022/07/08 11:50:13;;;;;;;8.23;0.73;;;;;;;31.00;29.16;101140.75;4893058;29;20064;-60
2022/07/08 11:52:58;;;;;;;1.60;0.28;;;;;;;31.06;29.03;101146.63;4895229;29;20060;-61
2022/07/08 11:55:44;;;;;;;1.42;0.60;;;;;;;31.10;28.00;101140.91;4898113;29;20052;-60
2022/07/08 11:58:51;;;;;;;1.35;0.65;;;;;;;31.13;29.11;101138.00;4895883;29;20388;-61
2022/07/08 12:01:38;;;;;;;3.33;0.43;;;;;;;30.95;28.62;101134.88;4895178;29;20412;-61
2022/07/08 12:04:23;;;;;;;2.00;0.43;;;;;;;31.08;29.47;101132.94;4894882;29;20930;-60
2022/07/08 12:07:24;;;;;;;0.90;0.50;;;;;;;31.04;27.99;101128.63;4892473;29;20075;-60
2022/07/08 12:10:09;;;;;;;1.50;0.82;;;;;;;30.96;27.51;101119.59;4895300;29;20111;-59
2022/07/08 12:12:56;;;;;;;3.03;0.40;;;;;;;30.78;28.78;101117.28;4895400;29;20075;-61
2022/07/08 12:15:40;;;;;;;1.33;0.30;;;;;;;30.78;27.68;101110.91;4895273;29;20519;-62
2022/07/08 12:18:25;;;;;;;0.95;0.60;;;;;;;30.82;28.60;101109.56;4898813;29;20059;-61
2022/07/08 12:21:18;;;;;;;3.03;0.50;;;;;;;30.74;28.13;101118.63;4895414;29;20061;-61
2022/07/08 12:24:04;;;;;;;1.35;0.60;;;;;;;30.72;28.15;101115.50;4895184;29;20409;-61
2022/07/08 12:26:57;;;;;;;3.13;0.30;;;;;;;30.86;28.32;101107.44;4902484;29;20519;-61
2022/07/08 12:29:43;;;;;;;0.75;0.32;;;;;;;30.90;27.72;101104.53;4905235;29;20051;-61
2022/07/08 12:32:43;;;;;;;1.10;0.40;;;;;;;30.93;27.92;101106.47;4917128;29;20415;-61
2022/07/08 12:35:30;;;;;;;3.38;0.40;;;;;;;30.90;27.52;101102.50;4917198;29;20408;-61
2022/07/08 12:38:14;;;;;;;3.75;0.40;;;;;;;30.99;27.35;101108.25;4917163;29;20510;-61
2022/07/08 12:40:59;;;;;;;1.10;0.50;;;;;;;31.10;28.09;101107.19;4898326;29;20420;-62
2022/07/08 12:43:44;;;;;;;3.47;0.50;;;;;;;31.05;27.16;101111.34;4891977;29;20051;-61
2022/07/08 12:46:29;;;;;;;0.45;0.30;;;;;;;30.95;26.69;101106.78;4896720;29;20397;-62
2022/07/08 12:49:25;;;;;;;1.85;0.55;;;;;;;31.04;26.76;101101.31;4899148;29;20052;-61
2022/07/08 12:52:11;;;;;;;0.77;0.40;;;;;;;31.11;26.83;101106.75;4898275;29;20059;-61
2022/07/08 12:54:56;;;;;;;2.58;0.40;;;;;;;31.13;27.15;101109.91;4897765;29;20072;-61
2022/07/08 12:57:42;;;;;;;2.30;0.55;;;;;;;31.20;27.39;101109.66;4886967;29;20047;-61
2022/07/08 13:00:27;;;;;;;9.95;0.55;;;;;;;31.16;26.87;101111.03;4891102;29;20051;-61